Terminal Aerodrome Forecast
Issued by NWS

Home | Current Version | Previous Version | Text Only | Print | Product List | Glossary Off
Versions: 1 2 3 4 5 6 7 8 9 10 11 12 13 14 15 16 17 18 19 20 21 22 23 24 25 26 27 28 29 30 31 32 33 34 35 36 37 38 39 40 41 42 43 44 45 46 47 48 49 50

728
FTUS43 KGRB 220531
TAFRHI
TAF
KRHI 220531Z 2206/2306 16005KT 5SM BR FEW120 WS020/21035KT
      TEMPO 2206/2210 2SM BR
     FM221000 19005KT 1SM BR SCT110
     FM221300 19006KT 5SM BR BKN090 PROB30 2215/2218 2SM TSRA BR
      OVC050CB
     FM221800 20008KT P6SM SCT200
     FM230400 19006KT P6SM FEW200 WS010/22020KT=

USA.gov is the U.S. government's official web portal to all federal, state and local government web resources and services.